Time;durP1;ratioP1;P1;durP2;ratioP2;P2;SDS_P1;SDS_P2;PMS_P1;PMS_P2;Temp;Humidity;BMP_temperature;BMP_pressure;BME280_temperature;BME280_humidity;BME280_pressure;Samples;Min_cycle;Max_cycle;Signal;HPM_P1;HPM_P2
2022/02/07 00:01:39;;;;;;;75.53;32.40;;;;;;;3.41;76.81;94598.94;5053095;28;20460;-82
2022/02/07 00:04:08;;;;;;;89.03;39.73;;;;;;;3.30;78.30;94588.41;5053265;28;20451;-81
2022/02/07 00:06:35;;;;;;;55.83;27.43;;;;;;;3.29;79.07;94598.88;5053030;28;20494;-80
2022/02/07 00:09:01;;;;;;;45.67;25.43;;;;;;;3.43;79.49;94598.84;5052736;28;20521;-80
2022/02/07 00:11:28;;;;;;;36.83;21.30;;;;;;;3.44;79.71;94579.75;5052520;28;20478;-80
2022/02/07 00:13:55;;;;;;;64.53;31.07;;;;;;;3.49;80.36;94592.47;5052753;28;20811;-81
2022/02/07 00:16:22;;;;;;;51.30;26.07;;;;;;;3.63;80.70;94606.25;5052617;28;20446;-81
2022/02/07 00:18:50;;;;;;;46.37;25.37;;;;;;;3.77;79.55;94607.16;5052374;28;20446;-81
2022/02/07 00:21:17;;;;;;;33.77;22.33;;;;;;;3.87;78.29;94587.47;5052701;28;20465;-81
2022/02/07 00:23:44;;;;;;;33.87;19.77;;;;;;;3.65;78.26;94573.25;5052742;28;20439;-81
2022/02/07 00:26:11;;;;;;;53.37;27.67;;;;;;;3.66;78.76;94585.28;5052278;28;20455;-80
2022/02/07 00:28:38;;;;;;;45.20;24.50;;;;;;;3.75;79.53;94578.69;5052668;28;20936;-80
2022/02/07 00:31:05;;;;;;;33.30;19.90;;;;;;;3.74;79.02;94592.59;5052214;28;20453;-80
2022/02/07 00:33:32;;;;;;;33.27;19.20;;;;;;;3.75;78.52;94591.66;5017441;28;20976;-81
2022/02/07 00:36:01;;;;;;;30.67;17.13;;;;;;;3.54;80.41;94573.09;5052405;28;20449;-81
2022/02/07 00:38:28;;;;;;;25.80;16.00;;;;;;;3.70;80.00;94566.00;5052598;28;20536;-81
2022/02/07 00:43:51;;;;;;;24.43;15.97;;;;;;;3.81;78.33;94569.69;5010337;28;20451;-81
2022/02/07 00:46:23;;;;;;;34.20;17.00;;;;;;;3.67;78.45;94550.63;5009944;28;20513;-82
2022/02/07 00:48:50;;;;;;;32.03;19.03;;;;;;;3.55;79.03;94532.44;5010181;28;20477;-82
2022/02/07 00:51:19;;;;;;;41.23;22.97;;;;;;;3.63;79.08;94546.56;5010114;28;20447;-81
2022/02/07 00:53:46;;;;;;;34.57;19.63;;;;;;;3.63;79.00;94546.56;5010112;28;20457;-81
2022/02/07 00:56:12;;;;;;;25.93;15.93;;;;;;;3.68;78.65;94552.28;5010196;28;20943;-80
2022/02/07 00:58:39;;;;;;;33.43;20.20;;;;;;;3.79;79.06;94561.19;5010051;28;20441;-80
2022/02/07 01:01:06;;;;;;;29.07;19.40;;;;;;;3.87;77.74;94532.97;5010006;28;20474;-80
2022/02/07 01:03:33;;;;;;;29.37;18.17;;;;;;;3.50;80.29;94521.50;5012128;28;20851;-81
2022/02/07 01:06:00;;;;;;;25.47;18.70;;;;;;;3.53;80.04;94542.06;5014445;28;20448;-81
2022/02/07 01:08:37;;;;;;;26.07;15.23;;;;;;;3.66;80.84;94517.84;5014115;28;20453;-81
2022/02/07 01:11:12;;;;;;;20.10;13.10;;;;;;;3.59;81.22;94495.81;4981335;28;20444;-82
2022/02/07 01:14:02;;;;;;;25.60;14.20;;;;;;;3.59;82.10;94501.00;5013854;28;20507;-80
2022/02/07 01:16:50;;;;;;;22.77;13.93;;;;;;;3.76;81.33;94491.28;5013985;28;20782;-81
2022/02/07 01:19:36;;;;;;;20.40;13.10;;;;;;;3.75;81.71;94472.28;5016195;28;20452;-82
2022/02/07 01:22:19;;;;;;;22.47;14.27;;;;;;;3.93;81.26;94511.81;5020522;28;20463;-81
2022/02/07 01:50:01;;;;;;;15.30;11.20;;;;;;;3.61;81.33;94444.66;5013272;28;20448;-81
2022/02/07 01:52:49;;;;;;;18.00;12.10;;;;;;;3.67;81.22;94428.69;5013250;28;20531;-81
2022/02/07 01:55:29;;;;;;;23.73;13.53;;;;;;;3.81;80.49;94442.53;5013258;28;20531;-81
2022/02/07 01:57:58;;;;;;;20.43;12.50;;;;;;;3.90;80.49;94423.75;5013174;28;20451;-81
2022/02/07 02:00:26;;;;;;;22.27;13.83;;;;;;;3.82;80.50;94405.28;4980249;28;20443;-82
2022/02/07 02:02:53;;;;;;;24.97;12.80;;;;;;;3.85;80.14;94405.06;5013354;28;20472;-81
2022/02/07 02:05:20;;;;;;;20.77;13.63;;;;;;;3.98;80.15;94427.50;5012862;28;20450;-81
2022/02/07 02:07:49;;;;;;;25.17;14.57;;;;;;;4.00;79.68;94391.88;5013087;28;20444;-81
2022/02/07 02:10:17;;;;;;;35.63;19.77;;;;;;;3.84;83.36;94387.84;5012864;28;20472;-81
2022/02/07 02:12:54;;;;;;;22.10;13.87;;;;;;;3.82;81.09;94394.91;5012793;28;20562;-81
2022/02/07 02:15:33;;;;;;;29.00;15.07;;;;;;;3.82;81.50;94397.50;5012178;28;21022;-81
2022/02/07 02:37:18;;;;;;;24.33;13.30;;;;;;;3.66;83.53;94362.16;4973450;28;20470;-81
2022/02/07 02:45:31;;;;;;;27.57;14.97;;;;;;;3.79;82.90;94382.13;4915739;29;20957;-82
2022/02/07 02:48:01;;;;;;;23.83;14.00;;;;;;;3.68;83.85;94375.03;4915459;29;20477;-81
2022/02/07 02:50:32;;;;;;;25.37;14.33;;;;;;;3.59;84.67;94354.91;4915632;29;20442;-80
2022/02/07 02:53:02;;;;;;;20.67;14.60;;;;;;;3.64;84.58;94369.22;4915646;29;20484;-82
2022/02/07 02:55:31;;;;;;;19.27;13.17;;;;;;;3.71;84.72;94374.84;4915495;29;20448;-82
2022/02/07 02:57:59;;;;;;;18.33;13.80;;;;;;;3.83;84.04;94384.41;4904879;29;20454;-82
2022/02/07 03:00:26;;;;;;;24.63;14.03;;;;;;;3.87;83.63;94387.63;4911344;29;20823;-82
2022/02/07 03:02:53;;;;;;;24.73;15.43;;;;;;;3.76;84.29;94380.56;4935173;29;20774;-81
2022/02/07 03:05:21;;;;;;;29.53;15.40;;;;;;;3.98;83.95;94385.13;4946998;28;20447;-80
2022/02/07 03:07:48;;;;;;;18.70;13.07;;;;;;;4.04;83.18;94364.78;4992188;28;20449;-81
2022/02/07 03:10:24;;;;;;;29.37;15.77;;;;;;;4.06;83.32;94340.50;4992598;28;20435;-81
2022/02/07 03:13:04;;;;;;;22.53;13.60;;;;;;;3.93;83.35;94351.72;4991909;28;20524;-81
2022/02/07 03:18:15;;;;;;;26.10;16.30;;;;;;;4.20;81.83;94343.81;4992308;28;20441;-81
2022/02/07 03:20:42;;;;;;;20.73;15.03;;;;;;;4.24;81.13;94353.03;5050073;28;20455;-81
2022/02/07 03:23:09;;;;;;;23.07;14.97;;;;;;;4.25;79.94;94338.28;5019002;28;20455;-81
2022/02/07 03:25:36;;;;;;;22.17;14.37;;;;;;;4.27;79.52;94326.84;5053862;28;20449;-79
2022/02/07 03:28:05;;;;;;;30.60;15.10;;;;;;;4.21;80.91;94342.88;5052498;28;20986;-82
2022/02/07 03:30:32;;;;;;;27.90;16.70;;;;;;;4.15;81.11;94338.09;5053567;28;20453;-82
2022/02/07 03:33:00;;;;;;;25.27;18.20;;;;;;;4.09;81.29;94333.34;5053477;28;20490;-80
2022/02/07 03:35:27;;;;;;;26.93;19.93;;;;;;;4.15;81.86;94348.50;5018076;28;20437;-81
2022/02/07 03:37:54;;;;;;;30.90;21.87;;;;;;;4.15;81.28;94348.50;5053400;28;20450;-81
2022/02/07 03:40:21;;;;;;;30.40;21.23;;;;;;;4.18;81.34;94352.66;5018359;28;20442;-82
2022/02/07 03:42:48;;;;;;;25.67;17.10;;;;;;;3.98;82.16;94341.84;5053278;28;20538;-81
2022/02/07 03:45:16;;;;;;;20.90;13.40;;;;;;;3.69;84.36;94317.84;5018318;28;20451;-82
2022/02/07 03:47:43;;;;;;;26.43;16.30;;;;;;;3.78;84.20;94326.81;5053156;28;20832;-80
2022/02/07 03:50:11;;;;;;;21.50;15.57;;;;;;;3.94;85.01;94347.34;5052975;28;20441;-82
2022/02/07 03:52:38;;;;;;;20.87;14.43;;;;;;;4.03;84.21;94326.78;5052859;28;21028;-82
2022/02/07 03:55:07;;;;;;;19.93;15.23;;;;;;;3.85;83.80;94319.44;5052969;28;20925;-83
2022/02/07 03:57:34;;;;;;;26.53;15.50;;;;;;;3.88;83.69;94350.38;5053084;28;20446;-80
2022/02/07 04:00:04;;;;;;;20.30;12.80;;;;;;;3.78;83.39;94310.41;5052901;28;20450;-85
2022/02/07 04:02:35;;;;;;;20.30;13.83;;;;;;;3.50;85.71;94264.75;5053142;28;20454;-81
2022/02/07 04:05:22;;;;;;;19.63;13.27;;;;;;;3.47;85.68;94320.25;5052796;28;21136;-81
2022/02/07 04:07:49;;;;;;;12.47;8.17;;;;;;;3.18;87.74;94304.00;5052826;28;20521;-82
2022/02/07 04:10:16;;;;;;;18.20;12.87;;;;;;;3.28;88.92;94314.59;5053081;28;20473;-81
2022/02/07 04:12:49;;;;;;;23.87;15.93;;;;;;;3.54;87.97;94321.50;5052680;28;21000;-80
2022/02/07 04:15:19;;;;;;;23.67;14.23;;;;;;;3.61;87.17;94324.50;5052725;28;20485;-81
2022/02/07 04:17:53;;;;;;;20.33;13.00;;;;;;;3.65;86.81;94319.00;5017463;28;20944;-81
2022/02/07 04:20:20;;;;;;;22.67;13.17;;;;;;;3.71;86.69;94321.19;5052642;28;20450;-81
2022/02/07 04:22:47;;;;;;;16.30;12.77;;;;;;;3.83;86.89;94326.50;5017764;28;20458;-81
2022/02/07 04:25:14;;;;;;;38.17;22.43;;;;;;;3.89;86.23;94306.13;5052776;28;20857;-81
2022/02/07 04:27:41;;;;;;;29.30;19.73;;;;;;;4.03;86.18;94324.19;5052815;28;20953;-81
2022/02/07 04:30:10;;;;;;;25.20;14.47;;;;;;;4.09;86.09;94315.16;5052630;28;20543;-81
2022/02/07 04:32:37;;;;;;;19.70;12.40;;;;;;;4.16;85.31;94293.03;5052452;28;20493;-81
2022/02/07 04:35:07;;;;;;;27.90;17.90;;;;;;;4.19;84.15;94294.59;5051350;28;20444;-81
2022/02/07 04:37:34;;;;;;;25.77;15.43;;;;;;;4.29;84.11;94298.19;5051880;28;20947;-81
2022/02/07 04:40:01;;;;;;;23.23;14.03;;;;;;;4.31;83.70;94302.34;5052343;28;20455;-82
2022/02/07 04:42:28;;;;;;;25.23;12.50;;;;;;;3.96;84.92;94257.22;5052493;28;20446;-81
2022/02/07 04:45:11;;;;;;;16.90;11.73;;;;;;;3.93;85.63;94305.00;5052210;28;20447;-79
2022/02/07 04:47:55;;;;;;;16.47;11.67;;;;;;;4.01;86.29;94312.25;5052231;28;21084;-83
2022/02/07 04:50:34;;;;;;;17.77;12.93;;;;;;;4.19;85.62;94274.63;5022395;28;20440;-83
2022/02/07 04:53:17;;;;;;;19.77;12.87;;;;;;;4.34;85.24;94298.72;5052104;28;20348;-83
2022/02/07 04:55:48;;;;;;;20.03;13.67;;;;;;;4.53;84.95;94301.66;5052279;28;20456;-82
2022/02/07 04:58:29;;;;;;;28.20;15.07;;;;;;;4.54;83.70;94284.31;5052407;28;20807;-82
2022/02/07 05:01:08;;;;;;;36.00;20.70;;;;;;;4.29;84.49;94252.28;5052068;28;20534;-83
2022/02/07 05:03:41;;;;;;;22.00;13.93;;;;;;;4.24;85.71;94238.78;5052097;28;20540;-83
2022/02/07 05:14:23;;;;;;;23.13;17.30;;;;;;;4.37;85.54;94238.75;5051641;28;20559;-81
2022/02/07 05:16:53;;;;;;;21.33;15.10;;;;;;;4.49;85.09;94243.06;5051704;28;20870;-81
2022/02/07 05:19:20;;;;;;;26.90;17.17;;;;;;;4.48;85.03;94241.41;5052204;28;20530;-81
2022/02/07 05:21:49;;;;;;;27.23;18.37;;;;;;;4.43;84.50;94237.50;5051695;28;20442;-82
2022/02/07 05:24:16;;;;;;;31.90;19.40;;;;;;;4.40;85.94;94261.91;5051594;28;20459;-79
2022/02/07 05:26:43;;;;;;;33.43;17.73;;;;;;;4.51;85.47;94282.75;5016891;28;20492;-80
2022/02/07 05:29:10;;;;;;;20.03;14.33;;;;;;;4.53;84.20;94282.66;5051927;28;20459;-82
2022/02/07 05:31:37;;;;;;;23.30;14.53;;;;;;;4.49;84.14;94287.22;5052018;28;20808;-83
2022/02/07 05:34:06;;;;;;;24.07;15.10;;;;;;;4.56;84.88;94277.22;5051451;28;20525;-82
2022/02/07 05:36:37;;;;;;;22.50;13.50;;;;;;;4.49;85.34;94263.03;5051647;28;20457;-83
2022/02/07 05:39:06;;;;;;;21.03;14.10;;;;;;;4.50;85.53;94265.50;5051788;28;20455;-82
2022/02/07 05:41:33;;;;;;;21.77;14.33;;;;;;;4.67;84.81;94261.72;5051440;28;20965;-82
2022/02/07 05:44:00;;;;;;;25.50;14.17;;;;;;;4.48;85.02;94245.78;5051718;28;20449;-82
2022/02/07 05:46:27;;;;;;;20.30;14.10;;;;;;;4.63;84.92;94255.09;5051803;28;20474;-81
2022/02/07 05:48:54;;;;;;;25.20;17.20;;;;;;;4.68;84.71;94257.34;5051936;28;20543;-81
2022/02/07 05:51:21;;;;;;;28.07;15.40;;;;;;;4.65;85.25;94268.81;5055820;28;20448;-82
2022/02/07 05:53:48;;;;;;;29.17;16.40;;;;;;;4.54;84.34;94281.72;5056487;28;20556;-83
2022/02/07 05:56:16;;;;;;;17.77;12.87;;;;;;;4.65;84.90;94299.97;5056275;28;20436;-83
2022/02/07 05:58:43;;;;;;;25.17;15.83;;;;;;;4.93;83.95;94322.22;5056506;28;20968;-82
2022/02/07 06:01:10;;;;;;;21.93;14.47;;;;;;;5.24;83.08;94323.44;5056217;28;20500;-82
2022/02/07 06:03:37;;;;;;;21.63;14.57;;;;;;;5.10;82.36;94311.44;5056812;28;20436;-83
2022/02/07 06:06:04;;;;;;;16.80;12.00;;;;;;;5.17;82.17;94293.59;5056168;28;20449;-83
2022/02/07 06:08:32;;;;;;;22.30;16.37;;;;;;;4.82;83.89;94293.56;5056452;28;20438;-83
2022/02/07 06:21:06;;;;;;;23.10;12.63;;;;;;;5.18;83.95;94274.44;5056039;28;20459;-81
2022/02/07 06:23:33;;;;;;;22.60;13.03;;;;;;;5.19;84.44;94269.13;5056488;28;20491;-82
2022/02/07 06:26:00;;;;;;;22.50;14.47;;;;;;;5.21;84.85;94263.84;5056002;28;20458;-81
2022/02/07 06:28:27;;;;;;;43.30;24.17;;;;;;;5.20;85.01;94264.75;5056142;28;20464;-83
2022/02/07 06:30:54;;;;;;;19.43;13.80;;;;;;;5.28;85.07;94267.66;5021355;28;20440;-82
2022/02/07 06:33:21;;;;;;;23.97;12.23;;;;;;;5.44;84.25;94273.34;5056234;28;20465;-84
2022/02/07 06:35:48;;;;;;;32.80;17.20;;;;;;;5.65;83.52;94264.88;5056396;28;20467;-84
2022/02/07 06:38:26;;;;;;;24.40;13.63;;;;;;;5.82;83.12;94264.44;5055890;28;20442;-85
2022/02/07 06:40:53;;;;;;;19.87;12.60;;;;;;;5.85;82.53;94256.41;5055767;28;20861;-84
2022/02/07 06:43:20;;;;;;;15.90;11.23;;;;;;;5.89;83.34;94231.78;5056651;28;20461;-82
2022/02/07 06:45:47;;;;;;;21.53;12.10;;;;;;;5.96;82.44;94235.59;5055745;28;20455;-83
2022/02/07 06:48:14;;;;;;;29.60;13.20;;;;;;;6.13;81.63;94255.13;5055730;28;20443;-84
2022/02/07 06:50:41;;;;;;;18.00;13.47;;;;;;;6.35;80.66;94264.69;5020821;28;20461;-85
2022/02/07 06:53:08;;;;;;;17.60;13.07;;;;;;;6.66;79.79;94269.16;5055690;28;20461;-83
2022/02/07 06:55:36;;;;;;;22.90;13.67;;;;;;;6.83;79.40;94262.59;5055436;28;20476;-83
2022/02/07 06:58:03;;;;;;;24.80;16.20;;;;;;;6.96;77.64;94270.28;5056130;28;20443;-84
2022/02/07 07:00:30;;;;;;;28.50;14.23;;;;;;;6.98;77.19;94268.38;5055846;28;20464;-84
2022/02/07 07:02:57;;;;;;;17.47;12.47;;;;;;;7.06;76.44;94258.13;5056412;28;20434;-85
2022/02/07 07:05:55;;;;;;;18.77;13.00;;;;;;;6.96;76.41;94244.19;5055717;28;20438;-84
2022/02/07 07:08:22;;;;;;;19.10;12.80;;;;;;;6.94;76.47;94236.50;5056302;28;20438;-83
2022/02/07 07:10:53;;;;;;;17.13;11.20;;;;;;;6.73;77.88;94240.81;5055891;28;20438;-85
2022/02/07 07:13:25;;;;;;;21.17;13.43;;;;;;;6.64;78.13;94236.31;5056088;28;20466;-85
2022/02/07 07:15:59;;;;;;;24.37;16.10;;;;;;;6.54;78.77;94246.66;5022791;28;20446;-86
2022/02/07 07:18:26;;;;;;;20.50;12.50;;;;;;;6.68;78.53;94241.19;5055384;28;20508;-83
2022/02/07 07:20:53;;;;;;;19.80;12.30;;;;;;;6.55;79.18;94235.28;5055351;28;20426;-84
2022/02/07 07:23:20;;;;;;;26.23;12.17;;;;;;;6.66;78.44;94243.09;5055243;28;20808;-84
2022/02/07 07:25:47;;;;;;;16.20;11.73;;;;;;;6.73;78.58;94226.00;5055527;28;20504;-82
2022/02/07 07:28:17;;;;;;;18.17;12.33;;;;;;;6.77;78.29;94235.22;5054956;28;20441;-83
2022/02/07 07:30:48;;;;;;;20.53;14.07;;;;;;;6.90;77.80;94213.38;5054933;28;20445;-82
2022/02/07 07:33:19;;;;;;;15.93;11.03;;;;;;;6.71;78.17;94199.22;5054403;28;20461;-83
2022/02/07 07:35:46;;;;;;;17.43;12.33;;;;;;;6.98;78.22;94221.41;5034822;28;20451;-82
2022/02/07 07:38:13;;;;;;;16.37;9.90;;;;;;;7.23;77.32;94215.84;5034810;28;20456;-83
2022/02/07 07:40:41;;;;;;;21.53;12.63;;;;;;;7.38;75.67;94224.19;5035002;28;20825;-83
2022/02/07 07:43:09;;;;;;;15.80;11.50;;;;;;;7.42;75.80;94215.97;5000525;28;20459;-82
2022/02/07 07:45:45;;;;;;;19.50;14.33;;;;;;;7.50;75.20;94206.66;5034929;28;20486;-83
2022/02/07 07:48:16;;;;;;;24.93;13.30;;;;;;;7.56;75.13;94198.34;5034488;28;21002;-82
2022/02/07 07:50:51;;;;;;;19.10;11.97;;;;;;;7.58;74.82;94162.47;5034202;28;20949;-83
2022/02/07 07:53:26;;;;;;;11.90;9.03;;;;;;;7.02;75.76;94140.19;5034072;28;20488;-84
2022/02/07 08:01:38;;;;;;;19.70;13.00;;;;;;;7.14;75.93;94157.41;5034075;28;20917;-82
2022/02/07 08:04:10;;;;;;;21.17;13.63;;;;;;;6.99;76.94;94161.31;5034292;28;20427;-82
2022/02/07 08:06:42;;;;;;;16.90;12.23;;;;;;;6.95;77.27;94172.94;5033929;28;20514;-83
2022/02/07 08:09:23;;;;;;;18.07;13.03;;;;;;;7.04;76.90;94153.09;5033800;28;20435;-83
2022/02/07 08:11:51;;;;;;;24.83;14.63;;;;;;;7.30;77.01;94161.38;5034110;28;20446;-83
2022/02/07 08:14:19;;;;;;;20.30;14.63;;;;;;;7.49;76.52;94166.69;5033800;28;20490;-83
2022/02/07 08:16:52;;;;;;;21.63;14.97;;;;;;;7.64;75.84;94162.78;5034127;28;20456;-83
2022/02/07 08:19:19;;;;;;;24.07;16.10;;;;;;;7.78;74.74;94148.53;5034414;28;20462;-82
2022/02/07 08:21:45;;;;;;;28.33;15.43;;;;;;;7.90;74.69;94137.06;5033873;28;20453;-84
2022/02/07 08:24:12;;;;;;;25.00;15.70;;;;;;;8.10;74.20;94135.34;5033515;28;20523;-83
2022/02/07 08:26:40;;;;;;;20.30;14.03;;;;;;;8.28;73.49;94132.88;5033674;28;20439;-83
2022/02/07 08:29:07;;;;;;;32.60;20.17;;;;;;;8.39;72.88;94114.50;5034126;28;20443;-82
2022/02/07 08:31:34;;;;;;;24.37;15.20;;;;;;;8.43;71.38;94121.13;5034444;28;20444;-83
2022/02/07 08:34:02;;;;;;;15.73;10.33;;;;;;;8.31;70.99;94120.34;5037704;28;20501;-83
2022/02/07 08:36:30;;;;;;;16.13;9.23;;;;;;;7.99;71.64;94093.63;5053355;28;20527;-80
2022/02/07 08:38:58;;;;;;;23.57;14.90;;;;;;;7.78;73.10;94065.78;5053036;28;20925;-79
2022/02/07 08:41:25;;;;;;;27.27;11.43;;;;;;;7.78;74.11;94059.75;5052596;28;20478;-82
2022/02/07 08:43:52;;;;;;;20.43;13.43;;;;;;;7.73;74.45;94067.97;5052340;28;20447;-82
2022/02/07 08:46:20;;;;;;;21.93;13.00;;;;;;;7.93;73.61;94100.22;5051905;28;20535;-83
2022/02/07 08:48:47;;;;;;;16.20;13.40;;;;;;;8.02;73.45;94104.63;5052317;28;20463;-81
2022/02/07 08:51:16;;;;;;;21.77;13.10;;;;;;;8.08;73.02;94098.03;5052631;28;20447;-82
2022/02/07 08:53:45;;;;;;;25.97;17.30;;;;;;;8.17;73.38;94091.19;4984723;28;20446;-82
2022/02/07 08:56:15;;;;;;;35.20;19.27;;;;;;;8.25;73.32;94063.41;5052157;28;20502;-83
2022/02/07 08:58:45;;;;;;;21.30;15.40;;;;;;;8.43;72.63;94070.63;5052539;28;20457;-83
2022/02/07 09:01:16;;;;;;;22.80;14.70;;;;;;;8.46;71.76;94059.88;5052552;28;20445;-82
2022/02/07 09:04:08;;;;;;;24.00;15.90;;;;;;;8.54;71.59;94063.44;5052155;28;20543;-83
2022/02/07 09:06:41;;;;;;;31.87;18.37;;;;;;;8.45;71.67;94024.25;5052319;28;20464;-83
2022/02/07 09:09:16;;;;;;;24.80;15.70;;;;;;;8.59;71.13;94044.72;5033469;28;20440;-83
2022/02/07 09:11:43;;;;;;;23.33;15.23;;;;;;;8.59;71.22;94071.69;5052583;28;20451;-83
2022/02/07 09:14:12;;;;;;;22.23;12.80;;;;;;;8.55;71.57;94083.41;5016779;28;20852;-83
2022/02/07 09:16:40;;;;;;;23.60;16.53;;;;;;;8.55;71.50;94067.72;5052348;28;20482;-82
2022/02/07 09:19:08;;;;;;;26.07;14.23;;;;;;;8.43;71.17;94062.78;5052509;28;20464;-84
2022/02/07 09:21:37;;;;;;;18.20;13.30;;;;;;;8.42;72.02;94082.88;5051890;28;20451;-83
2022/02/07 09:24:05;;;;;;;24.37;15.27;;;;;;;8.56;72.06;94086.84;5017800;28;20446;-83
2022/02/07 09:26:32;;;;;;;22.00;14.50;;;;;;;8.72;71.59;94086.31;5055661;28;20450;-83
2022/02/07 09:29:00;;;;;;;24.70;16.63;;;;;;;8.53;71.23;94082.72;5056274;28;20434;-82
2022/02/07 09:31:27;;;;;;;18.30;12.10;;;;;;;8.65;70.77;94086.84;5056456;28;20500;-80
2022/02/07 09:33:54;;;;;;;20.57;13.90;;;;;;;8.77;70.75;94068.41;5055543;28;20450;-83
2022/02/07 09:36:22;;;;;;;26.70;14.23;;;;;;;8.81;71.17;94060.13;5055283;28;20456;-82
2022/02/07 09:38:51;;;;;;;20.03;13.60;;;;;;;8.69;71.59;94069.94;5056554;28;20527;-82
2022/02/07 09:41:21;;;;;;;20.80;13.30;;;;;;;8.88;71.69;94074.28;5056757;28;20809;-82
2022/02/07 09:43:50;;;;;;;16.43;10.80;;;;;;;8.98;70.10;94067.28;5056896;28;20447;-83
2022/02/07 09:46:22;;;;;;;19.43;12.13;;;;;;;9.13;69.79;94057.16;5056250;28;20485;-81
2022/02/07 09:48:52;;;;;;;26.37;18.00;;;;;;;8.57;71.35;94000.41;5037975;28;20436;-83
2022/02/07 09:51:20;;;;;;;23.23;16.27;;;;;;;8.59;71.53;94031.66;5056360;28;20443;-82
2022/02/07 09:53:47;;;;;;;25.60;16.40;;;;;;;8.72;71.66;94019.13;5057065;28;20489;-82
2022/02/07 09:56:17;;;;;;;26.43;15.50;;;;;;;8.59;71.86;94001.09;5056544;28;20434;-82
2022/02/07 09:58:48;;;;;;;16.63;11.43;;;;;;;8.32;70.82;93975.63;5056330;28;20464;-82
2022/02/07 10:08:05;;;;;;;19.50;13.53;;;;;;;8.93;69.51;93983.13;5055282;28;20438;-82
2022/02/07 10:10:38;;;;;;;26.10;14.13;;;;;;;9.08;69.25;93965.19;5056435;28;20943;-82
2022/02/07 10:13:21;;;;;;;19.90;12.17;;;;;;;9.17;68.67;93971.34;5055352;28;21003;-82
2022/02/07 10:15:53;;;;;;;19.23;11.77;;;;;;;9.23;67.12;93944.56;5056222;28;20563;-83
2022/02/07 10:18:35;;;;;;;11.87;9.93;;;;;;;9.08;67.12;93925.91;5056713;28;20519;-83
2022/02/07 10:21:29;;;;;;;13.00;8.40;;;;;;;9.16;66.76;93931.25;5056344;28;20433;-83
2022/02/07 10:38:40;;;;;;;21.47;14.73;;;;;;;9.14;67.60;93878.22;5013828;28;20419;-82
2022/02/07 10:41:22;;;;;;;22.33;12.67;;;;;;;9.01;67.94;93875.16;5013851;28;20451;-82
2022/02/07 10:44:03;;;;;;;23.13;13.07;;;;;;;8.99;68.96;93887.56;5014124;28;20442;-83
2022/02/07 10:46:36;;;;;;;25.50;13.97;;;;;;;9.08;68.63;93884.06;5013560;28;20490;-83
2022/02/07 10:49:10;;;;;;;22.37;13.40;;;;;;;9.18;69.00;93903.13;5013513;28;20501;-83
2022/02/07 10:51:37;;;;;;;22.70;13.50;;;;;;;9.16;69.26;93871.06;5013577;28;20497;-83
2022/02/07 10:54:06;;;;;;;28.90;15.70;;;;;;;9.09;68.48;93864.75;5013433;28;20422;-83
2022/02/07 10:56:37;;;;;;;27.63;13.90;;;;;;;9.23;68.75;93869.50;5013684;28;20457;-83
2022/02/07 10:59:07;;;;;;;22.43;13.90;;;;;;;9.25;68.06;93838.78;5013395;28;20450;-84
2022/02/07 11:02:14;;;;;;;25.47;15.53;;;;;;;9.12;68.48;93854.00;5013891;28;20895;-83
2022/02/07 11:04:40;;;;;;;16.20;9.80;;;;;;;9.03;67.69;93833.97;5013207;28;20972;-83
2022/02/07 11:07:10;;;;;;;35.87;15.73;;;;;;;9.19;69.04;93822.81;5013334;28;20453;-83
2022/02/07 11:09:42;;;;;;;30.47;18.47;;;;;;;9.13;69.49;93820.81;5013574;28;20957;-81
2022/02/07 11:12:40;;;;;;;37.03;19.60;;;;;;;9.19;69.60;93823.66;5012966;28;20525;-84
2022/02/07 11:15:22;;;;;;;39.13;19.53;;;;;;;9.24;69.60;93816.16;4988103;28;20569;-83
2022/02/07 11:18:09;;;;;;;28.43;15.97;;;;;;;9.26;69.06;93819.50;5054803;28;20443;-83
2022/02/07 11:23:28;;;;;;;40.23;19.43;;;;;;;9.27;69.42;93818.53;5024143;28;20437;-82
2022/02/07 11:26:01;;;;;;;27.17;18.10;;;;;;;9.22;69.43;93799.78;5055049;28;20429;-85
2022/02/07 11:28:39;;;;;;;40.57;19.30;;;;;;;9.27;69.50;93820.31;5054592;28;20456;-84
2022/02/07 11:31:08;;;;;;;35.30;25.67;;;;;;;9.23;69.69;93806.66;5055148;28;20442;-85
2022/02/07 11:33:50;;;;;;;31.43;20.83;;;;;;;9.15;69.70;93805.78;5055424;28;20451;-82
2022/02/07 11:36:29;;;;;;;34.57;20.13;;;;;;;9.17;70.18;93809.06;5054451;28;21216;-83
2022/02/07 11:39:03;;;;;;;30.20;15.67;;;;;;;9.21;69.77;93810.41;5055591;28;20432;-84
2022/02/07 11:41:50;;;;;;;37.43;17.30;;;;;;;9.23;69.77;93798.81;5055762;28;20950;-84
2022/02/07 11:44:17;;;;;;;27.57;14.30;;;;;;;9.34;68.82;93789.13;5055457;28;20445;-83
2022/02/07 11:46:45;;;;;;;19.57;12.60;;;;;;;9.36;68.15;93774.09;5054462;28;20486;-84
2022/02/07 11:49:13;;;;;;;22.70;11.03;;;;;;;9.39;67.56;93776.41;5054208;28;20456;-84
2022/02/07 11:51:40;;;;;;;8.53;4.40;;;;;;;9.37;65.78;93778.34;5054497;28;20462;-83
2022/02/07 11:54:09;;;;;;;2.90;2.60;;;;;;;9.37;65.49;93757.41;5054417;28;20436;-83
2022/02/07 11:56:43;;;;;;;4.80;4.40;;;;;;;9.46;65.27;93735.53;5054354;28;20511;-82
2022/02/07 11:59:28;;;;;;;4.47;4.07;;;;;;;9.49;66.74;93719.53;5054004;28;20439;-84
2022/02/07 12:02:01;;;;;;;8.60;4.87;;;;;;;9.51;66.29;93717.56;5023411;28;20491;-83
2022/02/07 12:08:18;;;;;;;13.93;7.10;;;;;;;9.57;65.55;93686.38;5053977;28;20404;-83
2022/02/07 12:10:49;;;;;;;7.70;3.93;;;;;;;9.69;65.55;93700.03;5053896;28;20409;-83
2022/02/07 12:13:32;;;;;;;12.27;5.93;;;;;;;9.77;65.42;93704.50;5053558;28;20884;-84
2022/02/07 12:16:04;;;;;;;8.83;5.60;;;;;;;9.74;64.91;93686.47;5053654;28;20496;-81
2022/02/07 12:18:31;;;;;;;5.10;4.20;;;;;;;9.81;64.88;93677.81;5053909;28;20476;-83
2022/02/07 12:21:17;;;;;;;11.27;4.27;;;;;;;9.81;63.39;93687.47;5033662;28;20446;-82
2022/02/07 12:24:17;;;;;;;4.60;3.60;;;;;;;9.85;62.67;93720.28;5033415;28;20457;-82
2022/02/07 12:26:46;;;;;;;4.70;3.93;;;;;;;9.91;62.19;93707.38;4990640;28;20458;-81
2022/02/07 12:29:25;;;;;;;7.80;4.77;;;;;;;9.92;62.84;93702.97;4990781;28;20437;-81
2022/02/07 12:31:54;;;;;;;16.63;4.20;;;;;;;9.87;63.18;93713.09;4972194;28;20524;-81
2022/02/07 12:34:26;;;;;;;7.87;4.50;;;;;;;9.85;64.02;93710.63;4971077;28;20450;-83
2022/02/07 12:36:53;;;;;;;13.27;8.97;;;;;;;9.72;65.14;93709.38;4971206;28;20480;-83
2022/02/07 12:39:21;;;;;;;9.43;5.20;;;;;;;9.64;65.02;93697.06;4971726;28;20476;-84
2022/02/07 12:41:50;;;;;;;5.83;5.27;;;;;;;9.56;65.52;93687.34;4972479;28;20449;-82
2022/02/07 12:44:22;;;;;;;7.93;6.17;;;;;;;9.54;65.78;93670.13;5009908;28;20441;-82
2022/02/07 12:46:50;;;;;;;6.53;4.20;;;;;;;9.62;66.09;93684.13;5053384;28;20489;-81
2022/02/07 12:49:23;;;;;;;6.03;3.73;;;;;;;9.56;66.11;93682.13;5018767;28;20445;-82
2022/02/07 12:53:06;;;;;;;5.20;3.70;;;;;;;9.59;65.03;93649.56;5052773;28;20447;-80
2022/02/07 12:56:22;;;;;;;5.80;4.10;;;;;;;9.59;66.39;93688.84;4913520;28;20488;-81
2022/02/07 12:59:56;;;;;;;;;;;;;;;;;;;;;
2022/02/07 13:03:20;;;;;;;5.63;3.83;;;;;;;9.60;67.20;93659.88;4802906;29;21008;-81
2022/02/07 14:08:58;;;;;;;8.43;6.40;;;;;;;9.77;67.69;93618.88;4731866;30;20468;-81
2022/02/07 14:38:07;;;;;;;15.73;9.37;;;;;;;9.74;69.15;93592.97;4720838;30;20211;-82
2022/02/07 14:40:36;;;;;;;13.17;11.87;;;;;;;9.69;69.17;93599.69;4824631;29;20225;-80
2022/02/07 14:43:27;;;;;;;15.07;11.60;;;;;;;9.73;69.45;93590.53;4809511;29;20461;-82
2022/02/07 14:45:56;;;;;;;20.70;12.90;;;;;;;9.79;68.66;93595.13;4824375;29;20922;-82
2022/02/07 14:48:24;;;;;;;30.83;19.00;;;;;;;9.88;68.50;93602.88;4824781;29;20457;-81
2022/02/07 14:50:51;;;;;;;26.53;13.67;;;;;;;9.90;68.75;93608.78;4824346;29;20464;-81
2022/02/07 14:53:20;;;;;;;24.17;16.97;;;;;;;9.74;68.96;93595.59;4838157;29;20446;-82
2022/02/07 14:55:47;;;;;;;37.90;22.77;;;;;;;9.73;68.82;93580.88;4842779;29;20627;-82
2022/02/07 14:58:14;;;;;;;49.33;26.30;;;;;;;9.78;68.96;93615.28;4814648;29;20455;-80
2022/02/07 15:00:41;;;;;;;17.87;9.73;;;;;;;9.75;69.89;93633.09;4793513;29;20465;-82
2022/02/07 15:03:10;;;;;;;10.47;6.30;;;;;;;9.65;70.83;93622.75;4817234;29;20528;-81
2022/02/07 15:15:44;;;;;;;11.57;9.10;;;;;;;9.27;74.41;93600.44;4916075;29;20502;-81
2022/02/07 15:18:11;;;;;;;15.47;10.70;;;;;;;9.33;74.92;93615.53;4916684;29;20981;-81